Time;durP1;ratioP1;P1;durP2;ratioP2;P2;SDS_P1;SDS_P2;PMS_P1;PMS_P2;Temp;Humidity;BMP_temperature;BMP_pressure;BME280_temperature;BME280_humidity;BME280_pressure;Samples;Min_cycle;Max_cycle;Signal;HPM_P1;HPM_P2
2023/12/13 00:01:49;;;;;;;;;;;8.50;99.90;;;;;;5084271;28;20240;-72
2023/12/13 00:04:16;;;;;;;;;;;8.50;99.90;;;;;;5083883;28;20253;-72
2023/12/13 00:06:44;;;;;;;;;;;8.50;99.90;;;;;;5084333;28;19987;-73
2023/12/13 00:09:11;;;;;;;;;;;8.50;99.90;;;;;;5084477;28;19920;-72
2023/12/13 00:11:37;;;;;;;;;;;8.50;99.90;;;;;;5081469;28;19988;-73
2023/12/13 00:14:05;;;;;;;;;;;8.50;99.90;;;;;;5082148;28;19951;-72
2023/12/13 00:16:32;;;;;;;;;;;8.40;99.90;;;;;;5086723;28;20182;-73
2023/12/13 00:18:59;;;;;;;;;;;8.40;99.90;;;;;;5087469;28;19921;-72
2023/12/13 00:21:25;;;;;;;;;;;8.40;99.90;;;;;;5084049;28;19948;-72
2023/12/13 00:23:53;;;;;;;;;;;8.40;99.90;;;;;;5084167;28;19987;-72
2023/12/13 00:26:46;;;;;;;;;;;8.40;99.90;;;;;;5084662;28;19975;-74
2023/12/13 00:29:24;;;;;;;;;;;8.30;99.90;;;;;;5083812;28;19927;-74
2023/12/13 00:31:51;;;;;;;;;;;8.40;99.90;;;;;;5057000;28;19924;-72
2023/12/13 00:37:04;;;;;;;;;;;8.30;99.90;;;;;;5053397;28;19921;-73
2023/12/13 00:39:37;;;;;;;;;;;8.40;99.90;;;;;;5083994;28;19926;-73
2023/12/13 00:42:05;;;;;;;;;;;8.30;99.90;;;;;;5083859;28;19987;-74
2023/12/13 00:44:31;;;;;;;;;;;8.40;99.90;;;;;;5084475;28;19921;-74
2023/12/13 00:46:58;;;;;;;;;;;8.40;99.90;;;;;;5083841;28;20123;-75
2023/12/13 00:49:25;;;;;;;;;;;8.40;99.90;;;;;;5083731;28;19920;-74
2023/12/13 00:51:51;;;;;;;;;;;8.40;99.90;;;;;;5086839;28;19928;-74
2023/12/13 00:54:18;;;;;;;;;;;8.30;99.90;;;;;;5088335;28;19952;-74
2023/12/13 00:56:46;;;;;;;;;;;8.40;99.90;;;;;;5088387;28;19971;-73
2023/12/13 00:59:12;;;;;;;;;;;8.30;99.90;;;;;;5087827;28;19927;-73
2023/12/13 01:04:26;;;;;;;;;;;8.30;99.90;;;;;;5078527;28;20263;-72
2023/12/13 01:06:53;;;;;;;;;;;8.30;99.90;;;;;;5088218;28;19987;-72
2023/12/13 01:09:20;;;;;;;;;;;8.30;99.90;;;;;;5087232;28;19927;-74
2023/12/13 01:11:48;;;;;;;;;;;8.30;99.90;;;;;;5087376;28;19920;-73
2023/12/13 01:14:14;;;;;;;;;;;8.30;99.90;;;;;;5087032;28;19958;-73
2023/12/13 01:16:41;;;;;;;;;;;8.20;99.90;;;;;;5087180;28;20328;-73
2023/12/13 01:19:07;;;;;;;;;;;8.30;99.90;;;;;;5086701;28;19979;-72
2023/12/13 01:21:34;;;;;;;;;;;8.20;99.90;;;;;;5087080;28;20143;-71
2023/12/13 01:24:00;;;;;;;;;;;8.30;99.90;;;;;;5086631;28;19991;-73
2023/12/13 01:26:27;;;;;;;;;;;8.20;99.90;;;;;;5086995;28;19924;-73
2023/12/13 01:28:55;;;;;;;;;;;8.20;99.90;;;;;;5086642;28;20206;-73
2023/12/13 01:31:22;;;;;;;;;;;8.20;99.90;;;;;;5078893;28;19920;-71
2023/12/13 01:33:48;;;;;;;;;;;8.20;99.90;;;;;;5086806;28;19920;-73
2023/12/13 01:36:15;;;;;;;;;;;8.20;99.90;;;;;;5086779;28;19928;-73
2023/12/13 01:38:42;;;;;;;;;;;8.20;99.90;;;;;;5086714;28;19963;-73
2023/12/13 01:41:08;;;;;;;;;;;8.20;99.90;;;;;;5086438;28;20232;-73
2023/12/13 01:43:35;;;;;;;;;;;8.10;99.90;;;;;;5086610;28;19921;-73
2023/12/13 01:46:03;;;;;;;;;;;8.10;99.90;;;;;;5086232;28;20261;-73
2023/12/13 01:48:30;;;;;;;;;;;8.10;99.90;;;;;;5086227;28;19927;-73
2023/12/13 01:50:56;;;;;;;;;;;8.10;99.90;;;;;;5086465;28;19999;-73
2023/12/13 01:53:24;;;;;;;;;;;8.00;99.90;;;;;;5086249;28;20121;-73
2023/12/13 01:55:51;;;;;;;;;;;8.00;99.90;;;;;;5086084;28;19927;-73
2023/12/13 01:58:18;;;;;;;;;;;8.00;99.90;;;;;;5086048;28;19963;-73
2023/12/13 02:00:45;;;;;;;;;;;8.00;99.90;;;;;;5086561;28;19920;-73
2023/12/13 02:03:13;;;;;;;;;;;8.00;99.90;;;;;;5085242;28;19979;-73
2023/12/13 02:05:40;;;;;;;;;;;7.90;99.90;;;;;;5085909;28;19920;-73
2023/12/13 02:08:07;;;;;;;;;;;7.90;99.90;;;;;;5086142;28;19920;-72
2023/12/13 02:10:34;;;;;;;;;;;7.90;99.90;;;;;;5085571;28;20006;-73
2023/12/13 02:13:01;;;;;;;;;;;7.90;99.90;;;;;;5085573;28;20291;-72
2023/12/13 02:15:27;;;;;;;;;;;7.90;99.90;;;;;;5085701;28;19920;-72
2023/12/13 02:17:54;;;;;;;;;;;7.90;99.90;;;;;;5086102;28;19927;-73
2023/12/13 02:20:22;;;;;;;;;;;7.90;99.90;;;;;;5085571;28;19983;-72
2023/12/13 02:22:50;;;;;;;;;;;7.80;99.90;;;;;;5085745;28;19983;-73
2023/12/13 02:25:19;;;;;;;;;;;7.80;99.90;;;;;;5085785;28;19928;-71
2023/12/13 02:27:46;;;;;;;;;;;7.90;99.90;;;;;;5081319;28;19921;-72
2023/12/13 02:30:12;;;;;;;;;;;7.80;99.90;;;;;;5085807;28;19920;-73
2023/12/13 02:32:39;;;;;;;;;;;7.80;99.90;;;;;;5085906;28;20114;-73
2023/12/13 02:35:06;;;;;;;;;;;7.80;99.90;;;;;;5085185;28;19921;-72
2023/12/13 02:37:33;;;;;;;;;;;7.80;99.90;;;;;;5085625;28;19955;-72
2023/12/13 02:40:03;;;;;;;;;;;7.80;99.90;;;;;;5085519;28;19966;-72
2023/12/13 02:42:29;;;;;;;;;;;7.70;99.90;;;;;;5085411;28;19958;-72
2023/12/13 02:44:56;;;;;;;;;;;7.80;99.90;;;;;;5085447;28;19927;-72
2023/12/13 02:47:25;;;;;;;;;;;7.80;99.90;;;;;;5085560;28;19980;-73
2023/12/13 02:49:52;;;;;;;;;;;7.80;99.90;;;;;;5085360;28;19924;-72
2023/12/13 02:52:18;;;;;;;;;;;7.70;99.90;;;;;;5085213;28;19983;-72
2023/12/13 02:54:45;;;;;;;;;;;7.80;99.90;;;;;;5085231;28;19920;-72
2023/12/13 02:57:13;;;;;;;;;;;7.70;99.90;;;;;;5084836;28;20265;-72
2023/12/13 02:59:40;;;;;;;;;;;7.70;99.90;;;;;;5085195;28;19956;-72
2023/12/13 03:02:06;;;;;;;;;;;7.70;99.90;;;;;;5085115;28;19984;-72
2023/12/13 03:04:33;;;;;;;;;;;7.70;99.90;;;;;;5084955;28;19927;-72
2023/12/13 03:07:00;;;;;;;;;;;7.70;99.90;;;;;;5084816;28;19927;-73
2023/12/13 03:09:26;;;;;;;;;;;7.80;99.90;;;;;;5084177;28;19926;-73
2023/12/13 03:11:53;;;;;;;;;;;7.70;99.90;;;;;;5084918;28;19920;-72
2023/12/13 03:14:21;;;;;;;;;;;7.80;99.90;;;;;;5083959;28;20213;-73
2023/12/13 03:16:48;;;;;;;;;;;7.70;99.90;;;;;;5084899;28;19928;-74
2023/12/13 03:19:14;;;;;;;;;;;7.60;99.90;;;;;;5084825;28;20173;-73
2023/12/13 03:21:41;;;;;;;;;;;7.60;99.90;;;;;;5084907;28;19927;-73
2023/12/13 03:24:07;;;;;;;;;;;7.70;99.90;;;;;;5084536;28;19999;-73
2023/12/13 03:26:34;;;;;;;;;;;7.60;99.90;;;;;;5084636;28;19920;-73
2023/12/13 03:29:00;;;;;;;;;;;7.60;99.90;;;;;;5084379;28;19952;-73
2023/12/13 03:31:28;;;;;;;;;;;7.70;99.90;;;;;;5084299;28;20266;-73
2023/12/13 03:33:55;;;;;;;;;;;7.70;99.90;;;;;;5084229;28;19926;-72
2023/12/13 03:36:22;;;;;;;;;;;7.70;99.90;;;;;;5084546;28;19970;-73
2023/12/13 03:38:48;;;;;;;;;;;7.70;99.90;;;;;;5084057;28;20214;-73
2023/12/13 03:41:15;;;;;;;;;;;7.70;99.90;;;;;;5084467;28;19928;-73
2023/12/13 03:43:42;;;;;;;;;;;7.70;99.90;;;;;;5084440;28;19982;-73
2023/12/13 03:46:08;;;;;;;;;;;7.70;99.90;;;;;;5084130;28;19920;-73
2023/12/13 03:48:36;;;;;;;;;;;7.60;99.90;;;;;;5084209;28;19927;-73
2023/12/13 03:51:04;;;;;;;;;;;7.60;99.90;;;;;;5084109;28;19926;-73
2023/12/13 03:53:31;;;;;;;;;;;7.60;99.90;;;;;;5084212;28;19927;-74
2023/12/13 03:55:57;;;;;;;;;;;7.60;99.90;;;;;;5084005;28;19983;-73
2023/12/13 03:58:24;;;;;;;;;;;7.60;99.90;;;;;;5084239;28;19983;-73
2023/12/13 04:00:51;;;;;;;;;;;7.60;99.90;;;;;;5083937;28;19921;-73
2023/12/13 04:03:17;;;;;;;;;;;7.60;99.90;;;;;;5083928;28;19983;-73
2023/12/13 04:05:45;;;;;;;;;;;7.60;99.90;;;;;;5083645;28;19979;-73
2023/12/13 04:08:12;;;;;;;;;;;7.60;99.90;;;;;;5083968;28;19983;-73
2023/12/13 04:10:39;;;;;;;;;;;7.60;99.90;;;;;;5083706;28;19987;-73
2023/12/13 04:13:05;;;;;;;;;;;7.60;99.90;;;;;;5083872;28;19920;-73
2023/12/13 04:15:32;;;;;;;;;;;7.70;99.90;;;;;;5083760;28;19955;-73
2023/12/13 04:17:58;;;;;;;;;;;7.60;99.90;;;;;;5082269;28;20121;-73
2023/12/13 04:20:25;;;;;;;;;;;7.60;99.90;;;;;;5083740;28;19920;-73
2023/12/13 04:22:53;;;;;;;;;;;7.60;99.90;;;;;;5083195;28;19920;-73
2023/12/13 04:25:19;;;;;;;;;;;7.60;99.90;;;;;;5082510;28;20202;-73
2023/12/13 04:27:47;;;;;;;;;;;7.50;99.90;;;;;;5083756;28;19983;-72
2023/12/13 04:30:14;;;;;;;;;;;7.50;99.90;;;;;;5083782;28;19959;-73
2023/12/13 04:32:41;;;;;;;;;;;7.40;99.90;;;;;;5083756;28;19920;-73
2023/12/13 04:35:08;;;;;;;;;;;7.40;99.90;;;;;;5083469;28;20118;-73
2023/12/13 04:37:35;;;;;;;;;;;7.50;99.90;;;;;;5083485;28;19920;-73
2023/12/13 04:40:03;;;;;;;;;;;7.50;99.90;;;;;;5083506;28;19955;-73
2023/12/13 04:42:30;;;;;;;;;;;7.40;99.90;;;;;;5083300;28;20252;-73
2023/12/13 04:44:56;;;;;;;;;;;7.40;99.90;;;;;;5083417;28;19984;-73
2023/12/13 04:47:24;;;;;;;;;;;7.40;99.90;;;;;;5083292;28;20269;-73
2023/12/13 04:49:51;;;;;;;;;;;7.40;99.90;;;;;;5083415;28;19942;-73
2023/12/13 04:52:17;;;;;;;;;;;7.40;99.90;;;;;;5083201;28;19927;-73
2023/12/13 04:54:44;;;;;;;;;;;7.40;99.90;;;;;;5082919;28;19979;-73
2023/12/13 04:57:12;;;;;;;;;;;7.40;99.90;;;;;;5083360;28;20113;-73
2023/12/13 04:59:39;;;;;;;;;;;7.30;99.90;;;;;;5083043;28;19984;-73
2023/12/13 05:02:06;;;;;;;;;;;7.30;99.90;;;;;;5083354;28;19921;-73
2023/12/13 05:04:32;;;;;;;;;;;7.30;99.90;;;;;;5082967;28;19982;-73
2023/12/13 05:06:59;;;;;;;;;;;7.30;99.90;;;;;;5083299;28;19963;-73
2023/12/13 05:09:25;;;;;;;;;;;7.30;99.90;;;;;;5083019;28;19927;-73
2023/12/13 05:11:52;;;;;;;;;;;7.20;99.90;;;;;;5083453;28;19962;-73
2023/12/13 05:14:20;;;;;;;;;;;7.30;99.90;;;;;;5082760;28;19995;-73
2023/12/13 05:16:46;;;;;;;;;;;7.30;99.90;;;;;;5083089;28;19920;-73
2023/12/13 05:19:13;;;;;;;;;;;7.30;99.90;;;;;;5082776;28;20202;-73
2023/12/13 05:21:40;;;;;;;;;;;7.30;99.90;;;;;;5083203;28;19991;-73
2023/12/13 05:24:07;;;;;;;;;;;7.30;99.90;;;;;;5082866;28;19920;-73
2023/12/13 05:26:34;;;;;;;;;;;7.30;99.90;;;;;;5083809;28;19927;-73
2023/12/13 05:29:00;;;;;;;;;;;7.30;99.90;;;;;;5083093;28;19970;-73
2023/12/13 05:31:28;;;;;;;;;;;7.20;99.90;;;;;;5083293;28;19920;-73
2023/12/13 05:36:44;;;;;;;;;;;7.30;99.90;;;;;;5075586;28;19924;-74
2023/12/13 05:39:11;;;;;;;;;;;7.30;99.90;;;;;;5091244;28;19983;-75
2023/12/13 05:44:48;;;;;;;;;;;7.30;99.90;;;;;;5068456;28;19982;-74
2023/12/13 05:47:17;;;;;;;;;;;7.20;99.90;;;;;;5099876;28;19983;-74
2023/12/13 05:49:43;;;;;;;;;;;7.20;99.90;;;;;;5103491;28;19959;-75
2023/12/13 05:52:10;;;;;;;;;;;7.20;99.90;;;;;;5104436;28;19939;-75
2023/12/13 05:54:36;;;;;;;;;;;7.20;99.90;;;;;;5101430;28;20196;-74
2023/12/13 05:57:03;;;;;;;;;;;7.30;99.90;;;;;;5102178;28;20210;-75
2023/12/13 05:59:31;;;;;;;;;;;7.30;99.90;;;;;;5102215;28;19955;-75
2023/12/13 06:01:57;;;;;;;;;;;7.30;99.90;;;;;;5102891;28;19927;-74
2023/12/13 06:04:25;;;;;;;;;;;7.20;99.90;;;;;;5100118;28;19927;-74
2023/12/13 06:06:52;;;;;;;;;;;7.20;99.90;;;;;;5086959;28;19951;-73
2023/12/13 06:09:19;;;;;;;;;;;7.20;99.90;;;;;;5087678;28;20209;-75
2023/12/13 06:11:45;;;;;;;;;;;7.20;99.90;;;;;;5093790;28;19924;-75
2023/12/13 06:14:12;;;;;;;;;;;7.20;99.90;;;;;;5087436;28;19927;-75
2023/12/13 06:16:39;;;;;;;;;;;7.20;99.90;;;;;;5086249;28;19960;-77
2023/12/13 06:19:06;;;;;;;;;;;7.20;99.90;;;;;;5087699;28;20250;-75
2023/12/13 06:24:38;;;;;;;;;;;7.20;99.90;;;;;;5080043;28;19952;-75
2023/12/13 06:27:05;;;;;;;;;;;7.10;99.90;;;;;;5086398;28;19963;-74
2023/12/13 06:29:42;;;;;;;;;;;7.10;99.90;;;;;;5089873;28;20479;-73
2023/12/13 06:32:09;;;;;;;;;;;7.10;99.90;;;;;;5087234;28;19968;-74
2023/12/13 06:34:52;;;;;;;;;;;7.10;99.90;;;;;;5090588;28;19924;-75
2023/12/13 06:37:19;;;;;;;;;;;7.10;99.90;;;;;;5091650;28;19984;-75
2023/12/13 06:39:47;;;;;;;;;;;7.20;99.90;;;;;;5085521;28;19927;-74
2023/12/13 06:45:02;;;;;;;;;;;7.20;99.90;;;;;;5081938;28;19920;-74
2023/12/13 06:47:29;;;;;;;;;;;7.10;99.90;;;;;;5085442;28;19927;-74
2023/12/13 06:49:56;;;;;;;;;;;7.10;99.90;;;;;;5084767;28;19958;-74
2023/12/13 06:52:22;;;;;;;;;;;7.10;99.90;;;;;;5085477;28;19924;-74
2023/12/13 06:54:50;;;;;;;;;;;7.10;99.90;;;;;;5085346;28;19979;-73
2023/12/13 06:57:17;;;;;;;;;;;7.00;99.90;;;;;;5085406;28;19959;-75
2023/12/13 06:59:44;;;;;;;;;;;7.10;99.90;;;;;;5085086;28;20174;-75
2023/12/13 07:02:10;;;;;;;;;;;7.00;99.90;;;;;;5085310;28;19980;-73
2023/12/13 07:04:37;;;;;;;;;;;7.00;99.90;;;;;;5084887;28;19983;-74
2023/12/13 07:07:04;;;;;;;;;;;7.10;99.90;;;;;;5085191;28;19963;-74
2023/12/13 07:09:31;;;;;;;;;;;7.00;99.90;;;;;;5085015;28;19958;-73
2023/12/13 07:11:59;;;;;;;;;;;7.00;99.90;;;;;;5085430;28;20151;-74
2023/12/13 07:14:26;;;;;;;;;;;7.00;99.90;;;;;;5084684;28;20118;-74
2023/12/13 07:16:52;;;;;;;;;;;7.10;99.90;;;;;;5084934;28;20173;-74
2023/12/13 07:19:19;;;;;;;;;;;7.10;99.90;;;;;;5084688;28;19920;-74
2023/12/13 07:21:45;;;;;;;;;;;7.10;99.90;;;;;;5085008;28;20117;-74
2023/12/13 07:24:12;;;;;;;;;;;7.10;99.90;;;;;;5084710;28;19981;-74
2023/12/13 07:26:39;;;;;;;;;;;7.10;99.90;;;;;;5076647;28;19927;-74
2023/12/13 07:29:07;;;;;;;;;;;7.10;99.90;;;;;;5082025;28;20113;-74
2023/12/13 07:31:37;;;;;;;;;;;7.10;99.90;;;;;;5084860;28;19924;-74
2023/12/13 07:34:04;;;;;;;;;;;7.10;99.90;;;;;;5084535;28;20091;-74
2023/12/13 07:36:31;;;;;;;;;;;7.20;99.90;;;;;;5084658;28;19963;-74
2023/12/13 07:38:57;;;;;;;;;;;7.20;99.90;;;;;;5084382;28;19920;-74
2023/12/13 07:41:25;;;;;;;;;;;7.20;99.90;;;;;;5084691;28;20126;-75
2023/12/13 07:43:52;;;;;;;;;;;7.20;99.90;;;;;;5085490;28;19983;-73
2023/12/13 07:46:20;;;;;;;;;;;7.20;99.90;;;;;;5084085;28;19921;-75
2023/12/13 07:48:47;;;;;;;;;;;7.20;99.90;;;;;;5084200;28;20161;-74
2023/12/13 07:51:14;;;;;;;;;;;7.20;99.90;;;;;;5084099;28;19983;-74
2023/12/13 07:53:41;;;;;;;;;;;7.10;99.90;;;;;;5084161;28;19920;-75
2023/12/13 07:56:08;;;;;;;;;;;7.20;99.90;;;;;;5083642;28;19979;-74
2023/12/13 07:58:34;;;;;;;;;;;7.20;99.90;;;;;;5084021;28;20182;-74
2023/12/13 08:01:01;;;;;;;;;;;7.20;99.90;;;;;;5083671;28;19983;-75
2023/12/13 08:03:29;;;;;;;;;;;7.20;99.90;;;;;;5083790;28;19920;-74
2023/12/13 08:05:56;;;;;;;;;;;7.20;99.90;;;;;;5083514;28;19928;-74
2023/12/13 08:08:23;;;;;;;;;;;7.30;99.90;;;;;;5083935;28;19920;-74
2023/12/13 08:10:49;;;;;;;;;;;7.30;99.90;;;;;;5083568;28;19920;-75
2023/12/13 08:13:16;;;;;;;;;;;7.30;99.90;;;;;;5083889;28;19934;-74
2023/12/13 08:15:44;;;;;;;;;;;7.30;99.90;;;;;;5083756;28;19920;-75
2023/12/13 08:18:10;;;;;;;;;;;7.30;99.90;;;;;;5083821;28;20149;-75
2023/12/13 08:20:38;;;;;;;;;;;7.30;99.90;;;;;;5083777;28;20091;-74
2023/12/13 08:23:06;;;;;;;;;;;7.40;99.90;;;;;;5083413;28;19992;-74
2023/12/13 08:25:32;;;;;;;;;;;7.30;99.90;;;;;;5083335;28;20240;-74
2023/12/13 08:27:59;;;;;;;;;;;7.40;99.90;;;;;;5083595;28;19987;-75
2023/12/13 08:30:26;;;;;;;;;;;7.40;99.90;;;;;;5083305;28;19920;-76
2023/12/13 08:32:52;;;;;;;;;;;7.40;99.90;;;;;;5083527;28;19987;-76
2023/12/13 08:35:19;;;;;;;;;;;7.40;99.90;;;;;;5073806;28;19943;-74
2023/12/13 08:37:47;;;;;;;;;;;7.40;99.90;;;;;;5078494;28;19967;-74
2023/12/13 08:40:14;;;;;;;;;;;7.50;99.90;;;;;;5083306;28;19949;-73
2023/12/13 08:42:40;;;;;;;;;;;7.50;99.90;;;;;;5081378;28;19995;-74
2023/12/13 08:45:08;;;;;;;;;;;7.50;99.90;;;;;;5080840;28;19952;-73
2023/12/13 08:47:34;;;;;;;;;;;7.50;99.90;;;;;;5083378;28;19983;-73
2023/12/13 08:50:01;;;;;;;;;;;7.50;99.90;;;;;;5082854;28;20281;-74
2023/12/13 08:52:27;;;;;;;;;;;7.50;99.90;;;;;;5083365;28;19989;-74
2023/12/13 08:54:55;;;;;;;;;;;7.50;99.90;;;;;;5082602;28;19926;-73
2023/12/13 08:57:22;;;;;;;;;;;7.50;99.90;;;;;;5074382;28;19920;-74
2023/12/13 08:59:48;;;;;;;;;;;7.50;99.90;;;;;;5083051;28;19927;-74
2023/12/13 09:02:15;;;;;;;;;;;7.50;99.90;;;;;;5083195;28;20121;-72
2023/12/13 09:04:42;;;;;;;;;;;7.50;99.90;;;;;;5082471;28;19921;-74
2023/12/13 09:07:08;;;;;;;;;;;7.50;99.90;;;;;;5083322;28;19992;-74
2023/12/13 09:09:37;;;;;;;;;;;7.50;99.90;;;;;;5082535;28;20140;-74
2023/12/13 09:12:06;;;;;;;;;;;7.40;99.90;;;;;;5084727;28;20125;-73
2023/12/13 09:14:31;;;;;;;;;;;7.40;99.90;;;;;;5086261;28;20263;-73
2023/12/13 09:17:00;;;;;;;;;;;7.50;99.90;;;;;;5086876;28;19916;-73
2023/12/13 09:19:26;;;;;;;;;;;7.60;99.90;;;;;;5086717;28;19921;-74
2023/12/13 09:21:53;;;;;;;;;;;7.60;99.90;;;;;;5087285;28;19920;-74
2023/12/13 09:24:21;;;;;;;;;;;7.60;99.90;;;;;;5086483;28;19959;-75
2023/12/13 09:26:48;;;;;;;;;;;7.70;99.90;;;;;;5087197;28;19920;-73
2023/12/13 09:29:16;;;;;;;;;;;7.80;99.90;;;;;;5086932;28;19948;-73
2023/12/13 09:31:42;;;;;;;;;;;7.90;99.90;;;;;;5087047;28;19978;-73
2023/12/13 09:34:09;;;;;;;;;;;7.90;99.90;;;;;;5086291;28;19992;-74
2023/12/13 09:36:36;;;;;;;;;;;7.90;99.90;;;;;;5086987;28;19995;-74
2023/12/13 09:39:03;;;;;;;;;;;8.00;99.90;;;;;;5086429;28;19927;-73
2023/12/13 09:41:35;;;;;;;;;;;8.00;99.90;;;;;;5086787;28;19927;-74
2023/12/13 09:44:02;;;;;;;;;;;8.00;99.90;;;;;;5086135;28;20001;-73
2023/12/13 09:46:30;;;;;;;;;;;8.00;99.90;;;;;;5086717;28;19951;-73
2023/12/13 09:56:35;;;;;;;;;;;8.00;99.90;;;;;;5090859;28;19921;-75
2023/12/13 09:59:02;;;;;;;;;;;8.00;99.90;;;;;;5095257;28;19959;-75
2023/12/13 10:01:30;;;;;;;;;;;8.00;99.90;;;;;;5125917;28;19920;-75
2023/12/13 10:03:57;;;;;;;;;;;8.00;99.90;;;;;;5115303;27;20250;-76
2023/12/13 10:06:24;;;;;;;;;;;8.00;99.90;;;;;;5050090;28;19983;-74
2023/12/13 10:08:54;;;;;;;;;;;8.00;99.90;;;;;;4981791;28;20234;-75
2023/12/13 10:11:21;;;;;;;;;;;8.00;99.90;;;;;;4815306;29;1864054;-74
2023/12/13 10:13:47;;;;;;;;;;;8.00;99.90;;;;;;4807167;29;19926;-73
2023/12/13 10:16:15;;;;;;;;;;;8.00;99.90;;;;;;4772648;30;20211;-74
2023/12/13 10:18:43;;;;;;;;;;;8.00;99.90;;;;;;4764489;30;20278;-72
2023/12/13 10:21:10;;;;;;;;;;;8.00;99.90;;;;;;4764936;30;20288;-74
2023/12/13 10:23:37;;;;;;;;;;;8.00;99.90;;;;;;4762277;30;19989;-74
2023/12/13 10:26:05;;;;;;;;;;;8.00;99.90;;;;;;4764331;30;19953;-74
2023/12/13 10:28:33;;;;;;;;;;;8.00;99.90;;;;;;4764477;30;19993;-74
2023/12/13 10:31:00;;;;;;;;;;;8.00;99.90;;;;;;4763912;30;19957;-74
2023/12/13 10:33:26;;;;;;;;;;;8.00;99.90;;;;;;4764322;30;19932;-74
2023/12/13 10:35:56;;;;;;;;;;;8.00;99.90;;;;;;4764372;30;19925;-74
2023/12/13 10:38:25;;;;;;;;;;;8.00;99.90;;;;;;4759066;30;20001;-73
2023/12/13 10:40:51;;;;;;;;;;;8.00;99.90;;;;;;4764381;30;19930;-75
2023/12/13 10:43:19;;;;;;;;;;;8.00;99.90;;;;;;4764262;30;19965;-74
2023/12/13 10:45:52;;;;;;;;;;;8.00;99.90;;;;;;4764191;30;20239;-75
2023/12/13 10:48:21;;;;;;;;;;;8.00;99.90;;;;;;4764240;30;19975;-74
2023/12/13 10:50:48;;;;;;;;;;;8.00;99.90;;;;;;4764284;30;20092;-75
2023/12/13 10:53:18;;;;;;;;;;;8.00;99.90;;;;;;4763817;30;20162;-75
2023/12/13 10:55:45;;;;;;;;;;;8.00;99.90;;;;;;4764065;30;20291;-75
2023/12/13 10:58:12;;;;;;;;;;;8.00;99.90;;;;;;4764053;30;19926;-75
2023/12/13 11:00:40;;;;;;;;;;;8.00;99.90;;;;;;4764137;30;19988;-75
2023/12/13 11:03:10;;;;;;;;;;;8.00;99.90;;;;;;4763664;30;19926;-75
2023/12/13 11:05:37;;;;;;;;;;;8.00;99.90;;;;;;4763734;30;20290;-75
2023/12/13 11:08:13;;;;;;;;;;;8.10;99.90;;;;;;4763819;30;19926;-75
2023/12/13 11:10:41;;;;;;;;;;;8.10;99.90;;;;;;4757479;30;19927;-75
2023/12/13 11:13:08;;;;;;;;;;;8.10;99.90;;;;;;4874247;28;20212;-75
2023/12/13 11:15:44;;;;;;;;;;;8.10;99.90;;;;;;4975333;28;19926;-75
2023/12/13 11:18:11;;;;;;;;;;;8.20;99.90;;;;;;4947455;29;19933;-75
2023/12/13 11:20:45;;;;;;;;;;;8.20;99.90;;;;;;4947518;29;20020;-75
2023/12/13 11:23:13;;;;;;;;;;;8.20;99.90;;;;;;4947518;29;19995;-75
2023/12/13 11:25:45;;;;;;;;;;;8.10;99.90;;;;;;4947334;29;19959;-75
2023/12/13 11:28:20;;;;;;;;;;;8.10;99.90;;;;;;4947538;29;19929;-75
2023/12/13 11:30:47;;;;;;;;;;;8.00;99.90;;;;;;4947332;29;19930;-75
2023/12/13 11:33:17;;;;;;;;;;;8.00;99.90;;;;;;4947557;29;19930;-76
2023/12/13 11:35:46;;;;;;;;;;;7.90;99.90;;;;;;4939143;29;19929;-74
2023/12/13 11:38:13;;;;;;;;;;;7.90;99.90;;;;;;4947081;29;19930;-74
2023/12/13 11:40:41;;;;;;;;;;;7.90;99.90;;;;;;4947454;29;19953;-74
2023/12/13 11:43:08;;;;;;;;;;;7.90;99.90;;;;;;4947121;29;19923;-74
2023/12/13 11:45:35;;;;;;;;;;;7.90;99.90;;;;;;4947076;29;19991;-75
2023/12/13 11:48:02;;;;;;;;;;;7.80;99.90;;;;;;4946959;29;20266;-74
2023/12/13 11:50:29;;;;;;;;;;;7.80;99.90;;;;;;4940321;29;19961;-74
2023/12/13 11:52:55;;;;;;;;;;;7.80;99.90;;;;;;4946628;29;20263;-74
2023/12/13 11:55:22;;;;;;;;;;;7.80;99.90;;;;;;4946228;29;20026;-75
2023/12/13 11:57:50;;;;;;;;;;;7.80;99.90;;;;;;4946716;29;19922;-75
2023/12/13 12:00:18;;;;;;;;;;;7.90;99.90;;;;;;4946882;29;20205;-75
2023/12/13 12:02:44;;;;;;;;;;;7.90;99.90;;;;;;4946713;29;19954;-75
2023/12/13 12:05:13;;;;;;;;;;;7.90;99.90;;;;;;4946543;29;19982;-75
2023/12/13 12:07:39;;;;;;;;;;;8.00;99.90;;;;;;4947027;29;19922;-74
2023/12/13 12:10:07;;;;;;;;;;;8.00;99.90;;;;;;4951032;28;19946;-75
2023/12/13 12:12:35;;;;;;;;;;;8.10;99.90;;;;;;4954870;28;19930;-74
2023/12/13 12:15:06;;;;;;;;;;;8.10;99.90;;;;;;4967763;28;19927;-76
2023/12/13 12:17:33;;;;;;;;;;;8.10;99.90;;;;;;4985231;28;19922;-74
2023/12/13 12:20:00;;;;;;;;;;;8.10;99.90;;;;;;5010443;23;19960;-71
2023/12/13 12:22:28;;;;;;;;;;;8.10;99.90;;;;;;5004142;28;20079;-70
2023/12/13 12:24:55;;;;;;;;;;;8.10;99.90;;;;;;5004337;28;19964;-70
2023/12/13 12:27:23;;;;;;;;;;;8.20;99.90;;;;;;5004299;28;19957;-70
2023/12/13 12:29:50;;;;;;;;;;;8.40;99.90;;;;;;5003835;28;19984;-70
2023/12/13 12:32:18;;;;;;;;;;;8.50;99.90;;;;;;5003749;28;19934;-70
2023/12/13 12:34:47;;;;;;;;;;;8.60;99.90;;;;;;5004006;28;20175;-70
2023/12/13 12:37:14;;;;;;;;;;;8.60;99.90;;;;;;5004008;28;19922;-70
2023/12/13 12:39:41;;;;;;;;;;;8.70;99.90;;;;;;4995773;28;19929;-70
2023/12/13 12:42:08;;;;;;;;;;;8.70;99.90;;;;;;5003729;28;19928;-70
2023/12/13 12:44:34;;;;;;;;;;;8.80;99.90;;;;;;5003689;28;20270;-70
2023/12/13 12:47:01;;;;;;;;;;;8.70;99.90;;;;;;5002930;28;19985;-71
2023/12/13 12:49:29;;;;;;;;;;;8.80;99.90;;;;;;5003918;28;19941;-69
2023/12/13 12:51:56;;;;;;;;;;;8.70;99.90;;;;;;5003562;28;19995;-74
2023/12/13 12:54:22;;;;;;;;;;;8.70;99.90;;;;;;4995586;28;19964;-70
2023/12/13 12:56:50;;;;;;;;;;;8.70;99.90;;;;;;5003663;28;19989;-69
2023/12/13 12:59:17;;;;;;;;;;;8.60;99.90;;;;;;5003402;28;19922;-70
2023/12/13 13:01:44;;;;;;;;;;;8.50;99.90;;;;;;5003710;28;19961;-70
2023/12/13 13:04:13;;;;;;;;;;;8.50;99.90;;;;;;5003464;28;19921;-70
2023/12/13 13:06:42;;;;;;;;;;;8.40;99.90;;;;;;5003598;28;19945;-70
2023/12/13 13:09:09;;;;;;;;;;;8.30;99.90;;;;;;5003504;28;20099;-69
2023/12/13 13:11:36;;;;;;;;;;;8.40;99.90;;;;;;5014622;28;20216;-70
2023/12/13 13:14:03;;;;;;;;;;;8.40;99.90;;;;;;5010038;28;19949;-71
2023/12/13 13:16:30;;;;;;;;;;;8.40;99.90;;;;;;5016648;28;19997;-71
2023/12/13 13:18:56;;;;;;;;;;;8.40;99.90;;;;;;5023142;28;20001;-72
2023/12/13 13:21:23;;;;;;;;;;;8.40;99.90;;;;;;5023469;28;19927;-71
2023/12/13 13:23:51;;;;;;;;;;;8.30;99.90;;;;;;5023172;28;20179;-71
2023/12/13 13:26:18;;;;;;;;;;;8.30;99.90;;;;;;5023396;28;20169;-71
2023/12/13 13:28:45;;;;;;;;;;;8.30;99.90;;;;;;5023180;28;19985;-71
2023/12/13 13:31:13;;;;;;;;;;;8.20;99.90;;;;;;5022623;28;19983;-71
2023/12/13 13:33:40;;;;;;;;;;;8.30;99.90;;;;;;5022422;28;19928;-71
2023/12/13 13:36:07;;;;;;;;;;;8.30;99.90;;;;;;5023128;28;19984;-71
2023/12/13 13:38:34;;;;;;;;;;;8.30;99.90;;;;;;5023336;28;20182;-71
2023/12/13 13:41:02;;;;;;;;;;;8.30;99.90;;;;;;5022595;28;20274;-71
2023/12/13 13:43:30;;;;;;;;;;;8.30;99.90;;;;;;5022809;28;19928;-71
2023/12/13 13:45:56;;;;;;;;;;;8.40;99.90;;;;;;5025451;28;19928;-72
2023/12/13 13:48:23;;;;;;;;;;;8.40;99.90;;;;;;5023112;28;20114;-71
2023/12/13 13:50:50;;;;;;;;;;;8.50;99.90;;;;;;5023164;28;19922;-71
2023/12/13 13:53:17;;;;;;;;;;;8.50;99.90;;;;;;5022461;28;20260;-71
2023/12/13 13:55:44;;;;;;;;;;;8.50;99.90;;;;;;5023150;28;19925;-71
2023/12/13 13:58:12;;;;;;;;;;;8.60;99.90;;;;;;5024428;28;19925;-71
2023/12/13 14:00:39;;;;;;;;;;;8.50;99.90;;;;;;5025713;28;19960;-71
2023/12/13 14:03:06;;;;;;;;;;;8.50;99.90;;;;;;5026202;28;19992;-71
2023/12/13 14:05:35;;;;;;;;;;;8.50;99.90;;;;;;5026529;28;19928;-71
2023/12/13 14:08:02;;;;;;;;;;;8.60;99.90;;;;;;5026302;28;19921;-72
2023/12/13 14:10:28;;;;;;;;;;;8.60;99.90;;;;;;5026068;28;19922;-71
2023/12/13 14:12:55;;;;;;;;;;;8.60;99.90;;;;;;5044010;28;19988;-71
2023/12/13 14:15:23;;;;;;;;;;;8.60;99.90;;;;;;5040329;28;19988;-72
2023/12/13 14:17:50;;;;;;;;;;;8.60;99.90;;;;;;5035817;28;19984;-71
2023/12/13 14:20:16;;;;;;;;;;;8.60;99.90;;;;;;5035517;28;19964;-71
2023/12/13 14:22:43;;;;;;;;;;;8.60;99.90;;;;;;5036003;28;20117;-71
2023/12/13 14:25:10;;;;;;;;;;;8.60;99.90;;;;;;5041740;28;19984;-71
2023/12/13 14:27:36;;;;;;;;;;;8.60;99.90;;;;;;5045442;28;19960;-72
2023/12/13 14:30:03;;;;;;;;;;;8.60;99.90;;;;;;5045369;28;19921;-71
2023/12/13 14:32:31;;;;;;;;;;;8.50;99.90;;;;;;5045403;28;19921;-71
2023/12/13 14:34:58;;;;;;;;;;;8.60;99.90;;;;;;5045023;28;19921;-71
2023/12/13 14:37:25;;;;;;;;;;;8.50;99.90;;;;;;5041650;28;19929;-72
2023/12/13 14:39:52;;;;;;;;;;;8.50;99.90;;;;;;5037224;28;19936;-71
2023/12/13 14:42:18;;;;;;;;;;;8.50;99.90;;;;;;5045132;28;19983;-71
2023/12/13 14:44:45;;;;;;;;;;;8.50;99.90;;;;;;5045153;28;19992;-71
2023/12/13 14:47:11;;;;;;;;;;;8.50;99.90;;;;;;5044867;28;19984;-71
2023/12/13 14:49:39;;;;;;;;;;;8.40;99.90;;;;;;5044811;28;19963;-71
2023/12/13 14:52:06;;;;;;;;;;;8.40;99.90;;;;;;5044807;28;19952;-71
2023/12/13 14:54:34;;;;;;;;;;;8.40;99.90;;;;;;5044659;28;19921;-71
2023/12/13 14:57:01;;;;;;;;;;;8.40;99.90;;;;;;5044209;28;19921;-72